Time;durP1;ratioP1;P1;durP2;ratioP2;P2;SDS_P1;SDS_P2;PMS_P1;PMS_P2;Temp;Humidity;BMP_temperature;BMP_pressure;BME280_temperature;BME280_humidity;BME280_pressure;Samples;Min_cycle;Max_cycle;Signal;HPM_P1;HPM_P2
2022/12/24 00:01:27;;;;;;;4.70;3.70;;;;;;;9.58;100.00;96209.16;4974619;28;20176;-77
2022/12/24 00:03:53;;;;;;;6.43;4.43;;;;;;;9.59;100.00;96223.81;4974736;28;20193;-77
2022/12/24 00:06:21;;;;;;;10.60;7.10;;;;;;;9.57;100.00;96228.53;4975323;28;20260;-77
2022/12/24 00:08:46;;;;;;;8.53;7.87;;;;;;;9.60;100.00;96217.56;4957487;28;20215;-77
2022/12/24 00:11:12;;;;;;;11.13;5.67;;;;;;;9.64;100.00;96224.97;4974827;28;20604;-77
2022/12/24 00:13:38;;;;;;;8.57;5.70;;;;;;;9.66;100.00;96223.69;4975062;28;20233;-76
2022/12/24 00:16:04;;;;;;;9.47;6.40;;;;;;;9.67;100.00;96224.50;4972128;28;20536;-76
2022/12/24 00:18:30;;;;;;;6.53;6.03;;;;;;;9.66;100.00;96213.22;4974284;28;20707;-77
2022/12/24 00:20:55;;;;;;;6.83;6.10;;;;;;;9.67;100.00;96221.88;4974519;28;20193;-77
2022/12/24 00:23:21;;;;;;;6.70;6.10;;;;;;;9.66;100.00;96226.31;4974966;28;20184;-76
2022/12/24 00:25:46;;;;;;;9.00;6.90;;;;;;;9.69;100.00;96233.72;4974309;28;20219;-76
2022/12/24 00:28:13;;;;;;;6.27;5.67;;;;;;;9.66;100.00;96236.78;4974775;28;20192;-76
2022/12/24 00:30:40;;;;;;;7.33;6.70;;;;;;;9.70;100.00;96237.88;4974684;28;20204;-76
2022/12/24 00:33:05;;;;;;;6.73;5.23;;;;;;;9.68;100.00;96244.41;4974218;28;20186;-78
2022/12/24 00:35:33;;;;;;;10.43;5.07;;;;;;;9.64;100.00;96235.44;4974363;28;20231;-77
2022/12/24 00:37:58;;;;;;;7.33;5.70;;;;;;;9.64;100.00;96230.97;4957276;28;20203;-76
2022/12/24 00:40:23;;;;;;;7.93;4.50;;;;;;;9.67;100.00;96233.13;4974392;28;20192;-76
2022/12/24 00:42:49;;;;;;;6.67;5.03;;;;;;;9.63;100.00;96239.88;4973326;28;20204;-76
2022/12/24 00:45:14;;;;;;;4.97;4.50;;;;;;;9.62;100.00;96246.13;4974520;28;20185;-79
2022/12/24 00:47:40;;;;;;;6.57;5.17;;;;;;;9.67;100.00;96254.06;4974185;28;20192;-78
2022/12/24 00:50:06;;;;;;;8.03;5.23;;;;;;;9.72;100.00;96255.97;4974283;28;20231;-77
2022/12/24 00:52:31;;;;;;;5.00;4.50;;;;;;;9.67;100.00;96255.88;4974115;28;20192;-77
2022/12/24 00:54:56;;;;;;;4.10;3.80;;;;;;;9.66;100.00;96249.88;4973832;28;20678;-77
2022/12/24 00:57:22;;;;;;;7.13;5.13;;;;;;;9.60;100.00;96248.16;4973779;28;20620;-77
2022/12/24 00:59:47;;;;;;;6.97;4.60;;;;;;;9.57;100.00;96253.88;4974070;28;20716;-78
2022/12/24 01:02:12;;;;;;;8.23;4.80;;;;;;;9.58;100.00;96245.00;4973719;28;20542;-77
2022/12/24 01:07:22;;;;;;;5.77;5.23;;;;;;;9.64;100.00;96269.44;4972597;28;20356;-77
2022/12/24 01:09:47;;;;;;;6.00;5.23;;;;;;;9.63;100.00;96273.88;4956793;28;20281;-76
2022/12/24 01:12:12;;;;;;;5.43;5.00;;;;;;;9.62;100.00;96288.00;4973744;28;20188;-76
2022/12/24 01:14:38;;;;;;;7.47;5.10;;;;;;;9.61;100.00;96294.25;4973179;28;20180;-77
2022/12/24 01:17:04;;;;;;;7.00;4.30;;;;;;;9.72;100.00;96292.63;4973113;28;20352;-77
2022/12/24 01:19:29;;;;;;;9.90;4.03;;;;;;;9.77;100.00;96296.13;4973677;28;20188;-77
2022/12/24 01:21:54;;;;;;;6.20;3.93;;;;;;;9.79;100.00;96303.75;4973802;28;20315;-77
2022/12/24 01:24:20;;;;;;;6.60;4.03;;;;;;;9.70;100.00;96310.34;4956655;28;20252;-78
2022/12/24 01:26:46;;;;;;;4.67;3.97;;;;;;;9.67;100.00;96314.25;4966916;28;20208;-77
2022/12/24 01:29:11;;;;;;;4.70;4.03;;;;;;;9.68;100.00;96305.38;4956554;28;20255;-76
2022/12/24 01:31:37;;;;;;;4.53;4.13;;;;;;;9.79;100.00;96320.25;4973732;28;20184;-77
2022/12/24 01:34:02;;;;;;;6.60;4.40;;;;;;;9.81;100.00;96326.03;4973553;28;20272;-77
2022/12/24 01:36:27;;;;;;;4.67;4.03;;;;;;;9.83;100.00;96317.94;4973489;28;20189;-76
2022/12/24 01:38:53;;;;;;;6.63;4.27;;;;;;;9.73;100.00;96315.94;4973604;28;20718;-76
2022/12/24 01:44:25;;;;;;;6.83;4.00;;;;;;;9.76;100.00;96315.47;4969150;28;20203;-77
2022/12/24 01:47:01;;;;;;;5.37;4.63;;;;;;;9.85;100.00;96326.38;4973270;28;20180;-77
2022/12/24 01:49:27;;;;;;;5.67;3.70;;;;;;;9.78;100.00;96342.22;4973403;28;20180;-77
2022/12/24 01:52:01;;;;;;;5.30;4.83;;;;;;;9.67;100.00;96357.94;4973855;28;20661;-77
2022/12/24 01:54:59;;;;;;;7.73;4.37;;;;;;;9.57;100.00;96392.53;4973323;28;20239;-77
2022/12/24 01:57:28;;;;;;;5.37;4.27;;;;;;;9.44;100.00;96401.41;4972543;28;20227;-77
2022/12/24 01:59:59;;;;;;;9.37;7.13;;;;;;;9.17;100.00;96395.06;4956145;28;20185;-77
2022/12/24 02:02:26;;;;;;;8.37;5.13;;;;;;;9.13;100.00;96407.00;4973701;28;20177;-77
2022/12/24 02:05:08;;;;;;;7.20;5.23;;;;;;;9.09;100.00;96400.59;4965610;28;20260;-75
2022/12/24 02:07:35;;;;;;;5.87;5.27;;;;;;;8.89;100.00;96406.16;4973148;28;20188;-74
2022/12/24 02:10:01;;;;;;;8.87;5.43;;;;;;;8.87;100.00;96404.78;4973485;28;20185;-75
2022/12/24 02:12:31;;;;;;;8.63;5.33;;;;;;;8.74;100.00;96411.03;4956134;28;20238;-78
2022/12/24 02:14:58;;;;;;;10.70;5.80;;;;;;;8.79;100.00;96426.03;4972935;28;20234;-75
2022/12/24 02:17:30;;;;;;;10.73;4.87;;;;;;;8.72;100.00;96423.50;4973063;28;20246;-76
2022/12/24 02:20:20;;;;;;;9.10;4.83;;;;;;;8.82;100.00;96394.22;4973609;28;20651;-78
2022/12/24 02:22:57;;;;;;;8.80;5.77;;;;;;;8.86;100.00;96403.22;4975173;28;20181;-79
2022/12/24 02:25:36;;;;;;;13.70;5.13;;;;;;;8.83;100.00;96385.34;4975646;28;20722;-79
2022/12/24 02:28:04;;;;;;;9.10;4.97;;;;;;;8.73;100.00;96399.78;4976964;28;20196;-78
2022/12/24 02:30:33;;;;;;;12.77;4.87;;;;;;;8.69;100.00;96406.44;4973097;28;20271;-79
2022/12/24 02:32:58;;;;;;;9.27;5.03;;;;;;;8.63;100.00;96409.97;4976505;28;20271;-79
2022/12/24 02:35:58;;;;;;;8.23;4.30;;;;;;;8.66;100.00;96409.53;4976626;28;20267;-75
2022/12/24 02:39:07;;;;;;;6.60;4.87;;;;;;;8.62;100.00;96412.81;4945132;28;20311;-78
2022/12/24 02:44:32;;;;;;;11.00;4.93;;;;;;;8.74;100.00;96404.00;4976793;28;20655;-78
2022/12/24 02:46:59;;;;;;;9.93;5.63;;;;;;;8.72;100.00;96415.66;4976665;28;20185;-78
2022/12/24 02:49:25;;;;;;;16.30;5.60;;;;;;;8.75;100.00;96420.44;4976152;28;20239;-78
2022/12/24 02:51:50;;;;;;;12.97;6.17;;;;;;;8.74;100.00;96424.09;4976803;28;20189;-78
2022/12/24 02:54:16;;;;;;;7.23;5.67;;;;;;;8.73;100.00;96431.13;4969959;28;20689;-78
2022/12/24 02:57:22;;;;;;;11.97;6.27;;;;;;;8.62;100.00;96431.09;4939362;29;20291;-78
2022/12/24 02:59:58;;;;;;;13.50;6.10;;;;;;;8.58;100.00;96438.56;4957337;29;20184;-78
2022/12/24 03:02:37;;;;;;;10.33;5.73;;;;;;;8.59;100.00;96447.19;4956338;29;20544;-78
2022/12/24 03:05:49;;;;;;;10.67;6.63;;;;;;;8.58;100.00;96430.72;4957226;29;20200;-78
2022/12/24 03:08:35;;;;;;;6.50;4.83;;;;;;;8.59;100.00;96441.97;4952052;29;20652;-78
2022/12/24 03:11:09;;;;;;;8.27;5.50;;;;;;;8.62;100.00;96444.97;4951085;29;20180;-78
2022/12/24 03:13:35;;;;;;;10.57;5.40;;;;;;;8.64;100.00;96448.13;4954939;29;20233;-78
2022/12/24 03:16:04;;;;;;;6.23;5.63;;;;;;;8.58;100.00;96450.84;4956916;29;20185;-78
2022/12/24 03:18:30;;;;;;;11.73;5.70;;;;;;;8.62;100.00;96446.78;4956727;29;20672;-79
2022/12/24 03:21:00;;;;;;;11.63;5.57;;;;;;;8.68;100.00;96451.09;4956949;29;20200;-78
2022/12/24 03:23:26;;;;;;;11.43;4.80;;;;;;;8.60;100.00;96454.03;4956920;29;20206;-80
2022/12/24 03:25:52;;;;;;;9.00;4.87;;;;;;;8.63;100.00;96466.66;4956720;29;20190;-79
2022/12/24 03:28:18;;;;;;;11.77;5.07;;;;;;;8.61;100.00;96474.72;4956733;29;20182;-78
2022/12/24 03:30:47;;;;;;;7.77;4.73;;;;;;;8.61;100.00;96473.91;4956149;29;20220;-78
2022/12/24 03:33:13;;;;;;;9.67;5.70;;;;;;;8.63;100.00;96472.69;4956313;29;20185;-78
2022/12/24 03:35:39;;;;;;;9.77;5.03;;;;;;;8.55;100.00;96464.34;4955492;28;20257;-78
2022/12/24 03:38:04;;;;;;;9.07;5.77;;;;;;;8.58;100.00;96463.91;4939098;29;20660;-78
2022/12/24 03:40:30;;;;;;;10.50;6.00;;;;;;;8.62;100.00;96476.31;4956214;29;20248;-79
2022/12/24 03:42:55;;;;;;;10.40;6.37;;;;;;;8.62;100.00;96471.09;4955504;28;20193;-78
2022/12/24 03:45:21;;;;;;;7.53;5.53;;;;;;;8.63;100.00;96477.09;4956441;29;20261;-78
2022/12/24 03:47:46;;;;;;;7.37;6.00;;;;;;;8.55;100.00;96493.88;4955996;29;20197;-78
2022/12/24 03:50:11;;;;;;;8.40;6.10;;;;;;;8.56;100.00;96492.06;4955673;29;20317;-78
2022/12/24 03:52:37;;;;;;;12.03;7.40;;;;;;;8.57;100.00;96491.03;4956031;29;20320;-79
2022/12/24 03:55:03;;;;;;;16.50;6.27;;;;;;;8.59;100.00;96481.97;4955562;28;20260;-78
2022/12/24 03:57:28;;;;;;;9.90;6.10;;;;;;;8.60;100.00;96478.34;4938327;29;20216;-78
2022/12/24 03:59:53;;;;;;;9.60;6.00;;;;;;;8.57;100.00;96481.41;4956003;29;20193;-78
2022/12/24 04:02:19;;;;;;;8.47;4.50;;;;;;;8.57;100.00;96472.75;4955799;29;20204;-78
2022/12/24 04:04:44;;;;;;;11.03;4.40;;;;;;;8.57;100.00;96472.75;4955448;29;20186;-78
2022/12/24 04:07:10;;;;;;;8.80;4.47;;;;;;;8.56;100.00;96479.81;4938529;29;20195;-78
2022/12/24 04:09:35;;;;;;;10.77;5.13;;;;;;;8.55;100.00;96472.97;4955805;29;20245;-78
2022/12/24 04:12:01;;;;;;;10.73;4.73;;;;;;;8.59;100.00;96474.13;4955803;29;20189;-77
2022/12/24 04:14:26;;;;;;;5.20;4.30;;;;;;;8.54;100.00;96484.44;4954849;29;20201;-77
2022/12/24 04:16:51;;;;;;;8.90;4.17;;;;;;;8.46;100.00;96492.59;4955112;29;20217;-78
2022/12/24 04:19:17;;;;;;;11.40;4.50;;;;;;;8.47;100.00;96496.78;4955695;29;20190;-80
2022/12/24 04:21:42;;;;;;;8.00;4.70;;;;;;;8.46;100.00;96476.13;4955468;29;20278;-78
2022/12/24 04:24:07;;;;;;;7.70;4.73;;;;;;;8.46;100.00;96470.91;4955326;29;20601;-77
2022/12/24 04:26:33;;;;;;;11.67;4.83;;;;;;;8.48;100.00;96481.91;4955717;29;20598;-77
2022/12/24 04:28:58;;;;;;;7.73;5.17;;;;;;;8.44;100.00;96492.00;4955041;29;20197;-78
2022/12/24 04:31:23;;;;;;;7.83;4.93;;;;;;;8.46;100.00;96489.97;4955554;29;20185;-75
2022/12/24 04:33:51;;;;;;;11.60;5.20;;;;;;;8.43;100.00;96482.56;4955403;29;20227;-75
2022/12/24 04:36:17;;;;;;;9.67;5.00;;;;;;;8.40;100.00;96469.97;4955211;29;20548;-75
2022/12/24 04:38:44;;;;;;;13.13;5.57;;;;;;;8.44;100.00;96476.34;4955436;29;20245;-75
2022/12/24 04:41:18;;;;;;;11.20;4.77;;;;;;;8.37;100.00;96480.03;4957730;28;20204;-75
2022/12/24 04:43:43;;;;;;;5.97;3.80;;;;;;;8.33;100.00;96477.88;4955179;29;20184;-78
2022/12/24 04:46:13;;;;;;;6.20;4.23;;;;;;;8.36;100.00;96474.00;4954897;29;20197;-77
2022/12/24 04:48:39;;;;;;;7.57;4.40;;;;;;;8.37;100.00;96486.06;4954456;28;20185;-77
2022/12/24 04:51:07;;;;;;;6.87;4.90;;;;;;;8.39;100.00;96489.25;4954928;29;20268;-77
2022/12/24 04:53:33;;;;;;;8.00;4.10;;;;;;;8.32;100.00;96486.72;4955185;28;20245;-78
2022/12/24 04:55:59;;;;;;;5.97;4.30;;;;;;;8.36;100.00;96491.53;4954529;29;20197;-78
2022/12/24 04:58:25;;;;;;;10.03;6.33;;;;;;;8.31;100.00;96487.72;4947418;29;20580;-78
2022/12/24 05:00:50;;;;;;;9.97;4.73;;;;;;;8.26;100.00;96508.44;4954846;29;20224;-78
2022/12/24 05:03:16;;;;;;;12.10;5.17;;;;;;;8.33;100.00;96511.81;4955034;29;20203;-77
2022/12/24 05:05:41;;;;;;;7.00;4.43;;;;;;;8.38;100.00;96505.94;4954783;29;20178;-77
2022/12/24 05:08:06;;;;;;;4.97;4.43;;;;;;;8.31;100.00;96513.84;4954257;29;20553;-78
2022/12/24 05:10:32;;;;;;;9.03;4.70;;;;;;;8.33;100.00;96503.19;4954744;29;20217;-79
2022/12/24 05:12:57;;;;;;;6.63;4.00;;;;;;;8.36;100.00;96509.81;4952940;29;20185;-77
2022/12/24 05:15:23;;;;;;;8.93;5.20;;;;;;;8.34;100.00;96502.97;4954974;29;20182;-77
2022/12/24 05:17:48;;;;;;;11.80;5.10;;;;;;;8.26;100.00;96505.84;4954559;29;20213;-75
2022/12/24 05:20:14;;;;;;;8.87;4.23;;;;;;;8.20;100.00;96514.53;4954747;29;20196;-75
2022/12/24 05:28:09;;;;;;;7.20;4.43;;;;;;;8.29;100.00;96512.44;4954330;29;20235;-75
2022/12/24 05:30:34;;;;;;;7.47;4.63;;;;;;;8.28;100.00;96526.53;4954415;29;20700;-75
2022/12/24 05:33:00;;;;;;;7.23;4.40;;;;;;;8.31;100.00;96523.50;4954456;29;20248;-76
2022/12/24 05:35:25;;;;;;;6.40;4.00;;;;;;;8.30;100.00;96514.84;4954509;29;20194;-75
2022/12/24 05:37:50;;;;;;;9.83;4.97;;;;;;;8.25;100.00;96527.75;4954031;29;20213;-75
2022/12/24 05:40:16;;;;;;;11.03;4.83;;;;;;;8.27;100.00;96509.25;4954339;29;20185;-76
2022/12/24 05:42:41;;;;;;;13.20;5.07;;;;;;;8.24;100.00;96515.72;4951801;29;20648;-75
2022/12/24 05:45:07;;;;;;;6.73;4.70;;;;;;;8.20;100.00;96524.97;4954177;29;20193;-75
2022/12/24 05:47:32;;;;;;;12.90;5.93;;;;;;;8.15;100.00;96516.22;4953599;29;20224;-75
2022/12/24 05:49:58;;;;;;;10.10;5.20;;;;;;;8.09;100.00;96509.25;4953651;29;20181;-75
2022/12/24 05:52:23;;;;;;;10.40;5.03;;;;;;;8.11;100.00;96515.06;4954364;29;20185;-75
2022/12/24 05:54:48;;;;;;;8.70;5.63;;;;;;;8.10;100.00;96527.31;4964290;28;20311;-76
2022/12/24 05:57:15;;;;;;;6.53;4.90;;;;;;;8.10;100.00;96519.47;4972810;28;20243;-75
2022/12/24 05:59:40;;;;;;;8.87;4.97;;;;;;;8.05;100.00;96528.97;4974716;28;20192;-75
2022/12/24 06:02:05;;;;;;;7.67;4.77;;;;;;;8.04;100.00;96532.59;4977136;28;20191;-75
2022/12/24 06:04:31;;;;;;;8.30;5.10;;;;;;;8.05;100.00;96527.16;4977242;28;20240;-75
2022/12/24 06:06:56;;;;;;;10.23;4.53;;;;;;;8.04;100.00;96525.56;4977100;28;20184;-74
2022/12/24 06:09:21;;;;;;;12.97;6.07;;;;;;;8.01;100.00;96523.41;4959738;28;20200;-74
2022/12/24 06:11:47;;;;;;;10.37;4.80;;;;;;;8.08;100.00;96525.94;4975239;28;20216;-74
2022/12/24 06:14:12;;;;;;;8.50;4.30;;;;;;;8.03;100.00;96533.59;4976725;28;20184;-75
2022/12/24 06:16:37;;;;;;;7.43;4.73;;;;;;;7.99;100.00;96538.47;4976244;28;20185;-75
2022/12/24 06:19:03;;;;;;;12.17;5.53;;;;;;;7.97;100.00;96540.47;4976711;28;20205;-75
2022/12/24 06:21:28;;;;;;;10.17;5.23;;;;;;;8.03;100.00;96537.00;4976905;28;20195;-76
2022/12/24 06:23:53;;;;;;;9.27;5.20;;;;;;;8.04;100.00;96538.59;4968978;28;20181;-75
2022/12/24 06:26:21;;;;;;;6.47;5.13;;;;;;;8.02;100.00;96542.47;4959291;28;20192;-75
2022/12/24 06:28:48;;;;;;;7.17;5.13;;;;;;;8.03;100.00;96541.44;4976302;28;20624;-76
2022/12/24 06:31:18;;;;;;;10.30;5.00;;;;;;;8.04;100.00;96543.03;4976564;28;20193;-76
2022/12/24 06:33:43;;;;;;;6.07;4.70;;;;;;;8.05;100.00;96548.03;4976416;28;20196;-75
2022/12/24 06:36:13;;;;;;;10.97;4.50;;;;;;;8.10;100.00;96545.56;4976572;28;20185;-76
2022/12/24 06:38:39;;;;;;;8.20;4.93;;;;;;;8.08;100.00;96552.03;4976119;28;20256;-76
2022/12/24 06:41:06;;;;;;;8.77;5.53;;;;;;;8.00;100.00;96565.38;4975713;28;20181;-76
2022/12/24 06:43:33;;;;;;;8.63;4.83;;;;;;;8.07;100.00;96566.09;4976547;28;20197;-75
2022/12/24 06:45:59;;;;;;;18.60;6.13;;;;;;;8.04;100.00;96582.19;4976016;28;20181;-76
2022/12/24 06:48:24;;;;;;;9.50;5.27;;;;;;;7.99;100.00;96577.59;4975930;28;20204;-76
2022/12/24 06:50:50;;;;;;;8.07;5.13;;;;;;;8.03;100.00;96588.41;4976100;28;20644;-76
2022/12/24 06:53:15;;;;;;;9.57;4.87;;;;;;;8.02;100.00;96592.84;4976119;28;20225;-76
2022/12/24 06:55:40;;;;;;;8.23;4.97;;;;;;;8.00;100.00;96594.88;4975793;28;20235;-77
2022/12/24 06:58:06;;;;;;;7.80;4.93;;;;;;;8.06;100.00;96603.66;4976507;28;20276;-76
2022/12/24 07:00:31;;;;;;;9.37;4.50;;;;;;;8.11;100.00;96601.19;4976323;28;20192;-77
2022/12/24 07:02:57;;;;;;;5.37;4.33;;;;;;;8.21;100.00;96599.69;4975446;28;20267;-78
2022/12/24 07:05:22;;;;;;;6.83;6.17;;;;;;;8.21;100.00;96604.91;4972659;28;20561;-76
2022/12/24 07:07:47;;;;;;;8.53;4.80;;;;;;;8.27;100.00;96605.84;4974086;28;20189;-76
2022/12/24 07:10:15;;;;;;;10.10;4.33;;;;;;;8.25;100.00;96600.03;4976038;28;20184;-77
2022/12/24 07:12:41;;;;;;;10.73;5.73;;;;;;;8.22;100.00;96606.50;4974294;28;20262;-76
2022/12/24 07:15:08;;;;;;;8.27;5.17;;;;;;;8.23;100.00;96615.94;4975777;28;20181;-76
2022/12/24 07:17:33;;;;;;;12.20;6.07;;;;;;;8.22;100.00;96616.94;4975615;28;20213;-76
2022/12/24 07:19:58;;;;;;;8.57;7.00;;;;;;;8.20;100.00;96623.38;4976758;28;20211;-76
2022/12/24 07:22:24;;;;;;;11.67;8.70;;;;;;;8.24;100.00;96624.56;4976577;28;20192;-76
2022/12/24 07:24:49;;;;;;;7.27;6.67;;;;;;;8.32;100.00;96629.53;4958008;28;20718;-76
2022/12/24 07:27:14;;;;;;;11.03;6.80;;;;;;;8.28;100.00;96629.16;4958361;28;20193;-76
2022/12/24 07:29:40;;;;;;;10.10;5.77;;;;;;;8.30;100.00;96636.81;4975898;28;20301;-77
2022/12/24 07:32:05;;;;;;;7.30;6.07;;;;;;;8.36;100.00;96637.75;4975618;28;20632;-77
2022/12/24 07:34:31;;;;;;;8.53;5.37;;;;;;;8.33;100.00;96654.63;4976197;28;20566;-77
2022/12/24 07:36:56;;;;;;;7.00;5.50;;;;;;;8.34;100.00;96661.47;4975193;28;20180;-76
2022/12/24 07:39:22;;;;;;;11.80;5.83;;;;;;;8.34;100.00;96656.25;4976350;28;20536;-77
2022/12/24 07:41:49;;;;;;;8.90;5.43;;;;;;;8.94;100.00;96644.13;4976561;28;20707;-74
2022/12/24 07:44:15;;;;;;;7.50;5.67;;;;;;;8.71;100.00;96646.59;4975569;28;20180;-75
2022/12/24 07:46:40;;;;;;;6.27;4.67;;;;;;;8.55;100.00;96652.41;4955704;28;20224;-76
2022/12/24 07:49:06;;;;;;;8.77;4.93;;;;;;;8.59;100.00;96658.78;4978791;28;20220;-78
2022/12/24 07:51:31;;;;;;;7.27;5.20;;;;;;;8.52;100.00;96658.88;4976540;28;20197;-78
2022/12/24 07:53:57;;;;;;;8.47;4.90;;;;;;;8.53;100.00;96659.66;4974614;28;20573;-79
2022/12/24 07:56:22;;;;;;;8.93;6.40;;;;;;;8.53;100.00;96651.81;4974651;28;20518;-79
2022/12/24 07:58:50;;;;;;;10.33;6.97;;;;;;;8.61;100.00;96660.19;4957964;28;20204;-79
2022/12/24 08:01:15;;;;;;;10.00;7.03;;;;;;;8.57;100.00;96658.22;4975185;28;20192;-79
2022/12/24 08:03:41;;;;;;;8.13;6.07;;;;;;;8.68;100.00;96660.13;4974279;28;20238;-80
2022/12/24 08:06:07;;;;;;;10.50;6.77;;;;;;;8.74;100.00;96672.31;4975592;28;20185;-80
2022/12/24 08:08:32;;;;;;;8.53;7.50;;;;;;;8.64;100.00;96666.78;4974953;28;20191;-80
2022/12/24 08:11:02;;;;;;;8.57;7.63;;;;;;;8.57;100.00;96664.25;4974653;28;20524;-78
2022/12/24 08:13:28;;;;;;;13.47;8.40;;;;;;;8.52;100.00;96665.91;4968076;28;20181;-80
2022/12/24 08:15:54;;;;;;;8.73;7.73;;;;;;;8.50;100.00;96660.91;4975344;28;20180;-79
2022/12/24 08:18:19;;;;;;;9.53;7.17;;;;;;;8.52;100.00;96669.31;4975043;28;20232;-76
2022/12/24 08:20:45;;;;;;;8.60;7.93;;;;;;;8.56;100.00;96665.25;4974781;28;20216;-76
2022/12/24 08:23:10;;;;;;;11.57;8.97;;;;;;;8.67;100.00;96661.94;4973688;28;20196;-76
2022/12/24 08:25:36;;;;;;;12.60;7.93;;;;;;;8.68;100.00;96657.50;4974712;28;20219;-78
2022/12/24 08:28:01;;;;;;;11.07;9.30;;;;;;;8.55;100.00;96668.88;4974397;28;20208;-78
2022/12/24 08:30:26;;;;;;;11.40;7.97;;;;;;;8.66;100.00;96672.59;4957397;28;20188;-76
2022/12/24 08:32:53;;;;;;;9.43;7.10;;;;;;;8.64;100.00;96682.44;4974706;28;20192;-77
2022/12/24 08:35:18;;;;;;;9.67;5.53;;;;;;;8.72;100.00;96690.00;4974509;28;20269;-79
2022/12/24 08:37:44;;;;;;;10.37;4.93;;;;;;;8.72;100.00;96687.41;4975439;28;20287;-79
2022/12/24 08:40:10;;;;;;;8.23;5.50;;;;;;;8.77;100.00;96679.72;4975202;28;20200;-81
2022/12/24 08:42:35;;;;;;;5.27;4.33;;;;;;;8.76;100.00;96699.81;4968431;28;20184;-80
2022/12/24 08:45:00;;;;;;;6.97;6.10;;;;;;;8.85;100.00;96702.97;4956675;28;20191;-76
2022/12/24 08:47:26;;;;;;;8.83;6.23;;;;;;;8.71;100.00;96701.47;4974126;28;20196;-77
2022/12/24 08:49:51;;;;;;;9.90;6.37;;;;;;;8.71;100.00;96704.88;4974205;28;20285;-77
2022/12/24 08:52:17;;;;;;;10.10;6.10;;;;;;;8.74;100.00;96699.25;4976590;28;20538;-77
2022/12/24 08:54:42;;;;;;;11.57;6.33;;;;;;;8.68;100.00;96705.34;4974303;28;20694;-76
2022/12/24 08:57:07;;;;;;;6.90;6.07;;;;;;;8.73;100.00;96713.31;4973031;28;20192;-77
2022/12/24 08:59:33;;;;;;;14.60;8.83;;;;;;;8.77;100.00;96722.31;4949902;29;20183;-77
2022/12/24 09:01:58;;;;;;;8.47;5.63;;;;;;;8.74;100.00;96716.75;4955045;29;20203;-77
2022/12/24 09:04:23;;;;;;;8.97;6.27;;;;;;;8.74;100.00;96706.28;4971988;28;20191;-77
2022/12/24 09:06:49;;;;;;;11.53;6.23;;;;;;;8.67;100.00;96711.56;4974205;28;20702;-77
2022/12/24 09:09:14;;;;;;;11.10;6.57;;;;;;;8.73;100.00;96715.94;4973622;28;20196;-77
2022/12/24 09:11:39;;;;;;;13.73;7.37;;;;;;;8.65;100.00;96718.00;4956289;28;20192;-77
2022/12/24 09:14:05;;;;;;;7.80;6.67;;;;;;;8.82;100.00;96721.66;4973958;28;20180;-77
2022/12/24 09:16:30;;;;;;;13.23;6.97;;;;;;;8.90;100.00;96728.44;4974015;28;20184;-77
2022/12/24 09:18:57;;;;;;;11.27;6.53;;;;;;;9.02;100.00;96727.50;4973848;28;20316;-78
2022/12/24 09:21:22;;;;;;;14.37;6.70;;;;;;;9.09;100.00;96737.88;4973899;28;20236;-78
2022/12/24 09:23:48;;;;;;;7.83;4.97;;;;;;;9.04;100.00;96745.56;4973936;28;20189;-79
2022/12/24 09:26:19;;;;;;;11.03;4.90;;;;;;;9.06;100.00;96741.72;4973901;28;20216;-78
2022/12/24 09:28:45;;;;;;;9.70;3.93;;;;;;;9.12;100.00;96751.31;4956601;28;20632;-78
2022/12/24 09:31:12;;;;;;;10.93;4.60;;;;;;;9.20;100.00;96739.75;4956471;28;20541;-77
2022/12/24 09:33:39;;;;;;;7.87;3.83;;;;;;;9.26;100.00;96745.91;4973584;28;20636;-78
2022/12/24 09:36:05;;;;;;;12.63;4.57;;;;;;;9.18;100.00;96758.28;4974530;28;20197;-77
2022/12/24 09:38:32;;;;;;;12.03;5.33;;;;;;;9.19;100.00;96759.09;4956498;28;20201;-78
2022/12/24 09:40:58;;;;;;;13.00;5.03;;;;;;;9.26;100.00;96756.38;4962592;28;20193;-78
2022/12/24 09:43:28;;;;;;;11.10;4.63;;;;;;;9.25;100.00;96744.34;4954449;29;20178;-78
2022/12/24 09:46:09;;;;;;;8.07;4.87;;;;;;;9.15;100.00;96760.53;4954605;29;20208;-78
2022/12/24 09:48:40;;;;;;;10.80;5.30;;;;;;;9.19;100.00;96765.09;4937449;29;20272;-78
2022/12/24 09:51:09;;;;;;;12.17;5.23;;;;;;;9.17;100.00;96759.31;4954642;29;20177;-78
2022/12/24 09:53:54;;;;;;;10.03;5.47;;;;;;;9.06;100.00;96757.41;4954333;29;20595;-78
2022/12/24 09:56:23;;;;;;;9.47;5.87;;;;;;;8.99;100.00;96761.91;4956081;29;20272;-78
2022/12/24 09:59:00;;;;;;;12.60;4.70;;;;;;;9.18;100.00;96760.09;4951862;28;20202;-77
2022/12/24 10:01:28;;;;;;;5.77;4.17;;;;;;;9.32;100.00;96756.31;4973405;28;20180;-78
2022/12/24 10:03:54;;;;;;;11.63;4.73;;;;;;;9.26;100.00;96754.56;4972855;28;20679;-77
2022/12/24 10:06:32;;;;;;;9.27;5.47;;;;;;;9.22;100.00;96761.25;4973571;28;20279;-77
2022/12/24 10:09:36;;;;;;;10.00;5.40;;;;;;;9.51;100.00;96757.91;4973331;28;20539;-78
2022/12/24 10:12:32;;;;;;;12.60;4.57;;;;;;;9.60;100.00;96755.78;4937732;29;20228;-78
2022/12/24 10:15:06;;;;;;;6.53;4.20;;;;;;;9.67;100.00;96742.59;4954444;29;20253;-80
2022/12/24 10:17:55;;;;;;;10.50;5.07;;;;;;;9.62;100.00;96753.75;4954974;29;20280;-79
2022/12/24 10:20:26;;;;;;;12.40;6.20;;;;;;;9.59;100.00;96749.72;4955514;29;20602;-77
2022/12/24 10:23:11;;;;;;;7.97;5.73;;;;;;;9.53;100.00;96744.59;4974632;28;20195;-78
2022/12/24 10:25:49;;;;;;;13.60;6.83;;;;;;;9.53;100.00;96761.09;4992848;28;20211;-80
2022/12/24 10:28:17;;;;;;;13.23;5.63;;;;;;;9.63;100.00;96754.53;4993092;28;20199;-79
2022/12/24 10:30:48;;;;;;;9.93;5.67;;;;;;;9.55;100.00;96755.63;4992976;28;20180;-79
2022/12/24 10:33:19;;;;;;;9.43;4.30;;;;;;;9.52;100.00;96753.47;4975321;28;20180;-79
2022/12/24 10:35:50;;;;;;;8.93;4.60;;;;;;;9.44;100.00;96762.41;4993276;28;20180;-76
2022/12/24 10:38:16;;;;;;;11.87;5.80;;;;;;;9.45;100.00;96771.06;4992762;28;20196;-77
2022/12/24 10:40:50;;;;;;;9.17;5.63;;;;;;;9.42;100.00;96763.63;4981822;28;20189;-79
2022/12/24 10:43:25;;;;;;;7.73;4.67;;;;;;;9.47;100.00;96776.88;4973849;28;20191;-79
2022/12/24 10:45:54;;;;;;;6.17;3.90;;;;;;;9.52;100.00;96762.13;4974643;28;20250;-79
2022/12/24 10:48:29;;;;;;;7.20;4.10;;;;;;;9.51;100.00;96765.75;4979873;28;20188;-77
2022/12/24 10:51:02;;;;;;;9.80;4.13;;;;;;;9.56;100.00;96767.69;4976457;28;20168;-75
2022/12/24 10:53:33;;;;;;;9.67;4.60;;;;;;;9.60;100.00;96780.13;4976525;28;20185;-76
2022/12/24 10:56:09;;;;;;;9.73;4.40;;;;;;;9.66;100.00;96778.44;4976582;28;20215;-77
2022/12/24 10:58:35;;;;;;;16.90;4.50;;;;;;;9.75;100.00;96773.72;4976921;28;20230;-75
2022/12/24 11:01:02;;;;;;;10.77;4.80;;;;;;;9.77;100.00;96772.47;4958760;28;20558;-75
2022/12/24 11:03:33;;;;;;;7.60;4.43;;;;;;;9.92;100.00;96780.72;4967197;28;20227;-75
2022/12/24 11:06:05;;;;;;;10.27;5.50;;;;;;;9.97;100.00;96769.59;4972112;28;20181;-78
2022/12/24 11:08:32;;;;;;;14.07;10.57;;;;;;;10.06;100.00;96768.25;4974545;28;20173;-77
2022/12/24 11:11:01;;;;;;;14.97;12.20;;;;;;;10.05;100.00;96760.59;4974750;28;20223;-76
2022/12/24 11:13:27;;;;;;;12.67;8.27;;;;;;;10.14;100.00;96767.91;4975921;28;20336;-76
2022/12/24 11:16:05;;;;;;;10.13;7.60;;;;;;;10.19;100.00;96773.34;4976069;28;20192;-77
2022/12/24 11:18:33;;;;;;;9.73;6.50;;;;;;;10.20;100.00;96766.25;4975582;28;20236;-76
2022/12/24 11:20:59;;;;;;;12.03;6.57;;;;;;;10.17;100.00;96770.13;4958677;28;20946;-76
2022/12/24 11:23:27;;;;;;;9.97;5.13;;;;;;;10.06;100.00;96770.88;4975575;28;20185;-75
2022/12/24 11:25:54;;;;;;;8.80;5.70;;;;;;;10.00;100.00;96771.75;4975932;28;20185;-74
2022/12/24 11:28:26;;;;;;;8.90;5.00;;;;;;;10.09;100.00;96773.03;4976116;28;20184;-74
2022/12/24 11:31:02;;;;;;;11.93;5.43;;;;;;;10.11;100.00;96772.81;4975969;28;20192;-78
2022/12/24 11:33:29;;;;;;;10.90;6.50;;;;;;;10.10;100.00;96768.59;4975930;28;20520;-76
2022/12/24 11:36:05;;;;;;;10.47;6.73;;;;;;;10.22;100.00;96766.84;4969049;28;20189;-76
2022/12/24 11:38:32;;;;;;;11.03;6.47;;;;;;;10.30;100.00;96763.91;4975943;28;20541;-77
2022/12/24 11:41:04;;;;;;;10.27;5.57;;;;;;;10.28;100.00;96768.56;4975285;28;20193;-75
2022/12/24 11:43:54;;;;;;;7.87;6.10;;;;;;;10.40;100.00;96759.69;4958204;28;20204;-75
2022/12/24 11:46:26;;;;;;;8.10;6.53;;;;;;;10.36;100.00;96755.16;4975444;28;20173;-76
2022/12/24 11:49:10;;;;;;;9.90;5.83;;;;;;;10.41;100.00;96756.06;4975256;28;20169;-76